Terminal Aerodrome Forecast
Issued by NWS Lake Charles, LA

Home | Current Version | Previous Version | Text Only | Print | Product List | Glossary On
Versions: 1 2 3 4 5 6 7 8 9 10 11 12 13 14 15 16
000
FTUS44 KLCH 270200 AAA
TAFARA
TAF AMD
KARA 270228Z 2702/2724 10009KT P6SM VCSH SCT008 OVC040
      TEMPO 2702/2706 BKN008
     FM270600 13010KT 5SM BR VCSH OVC007
     FM270900 13007KT 3SM BR VCSH OVC003
     FM271500 14008KT 4SM -RA BR VCTS OVC007CB
     FM271800 17010KT 4SM -TSRA BR OVC007CB=

USA.gov is the U.S. government's official web portal to all federal, state and local government web resources and services.